Bloedel, Canada
Current Conditions -  °F | °C
As of 8:00 PM on Wednesday 22 Oct 2014 (Local Time) from CYBL Reporting Station
Light Rain Light Rain  
Wind Chill: 48°   Ceiling: 4500
Heat Index: 48°   Visibility: 8mi
Dew Point: 46°   Wind: 2mph
Humidity: 93%   Direction: NA
Pressure: 29.47"   Gusts: NA
Location:  50.12°N, 125.38°W
Report Text: CYBL 230300Z VRB02KT 8SM -RA FEW007 BKN045 OVC070 09/08 A2947 RMK SF1SC5AC2 SLP982
Loading
Personal Weather Stations






























Interactive Weather Map
Tropical Storm Tracking
New forecast layout! Learn more

10-Day Weather Forecast

Advertisements
Track Severe Weather on mobile